Time;durP1;ratioP1;P1;durP2;ratioP2;P2;SDS_P1;SDS_P2;PMS_P1;PMS_P2;Temp;Humidity;BMP_temperature;BMP_pressure;BME280_temperature;BME280_humidity;BME280_pressure;Samples;Min_cycle;Max_cycle;Signal;HPM_P1;HPM_P2
2022/04/13 00:01:13;;;;;;;6.85;2.67;;;12.10;99.90;;;;;;5093393;28;20168;-54
2022/04/13 00:03:39;;;;;;;3.63;2.55;;;12.10;99.90;;;;;;5075076;28;20028;-56
2022/04/13 00:06:04;;;;;;;4.28;2.30;;;12.00;99.90;;;;;;5093584;28;20035;-59
2022/04/13 00:08:31;;;;;;;3.10;2.17;;;12.00;99.90;;;;;;5075055;28;20059;-59
2022/04/13 00:10:57;;;;;;;5.75;2.70;;;11.90;99.90;;;;;;5075045;28;20123;-59
2022/04/13 00:13:23;;;;;;;5.18;2.83;;;11.90;99.90;;;;;;5093325;28;20103;-57
2022/04/13 00:15:48;;;;;;;3.88;2.70;;;11.90;99.90;;;;;;5093148;28;20073;-57
2022/04/13 00:18:14;;;;;;;4.13;2.10;;;11.80;99.90;;;;;;5075068;28;20055;-55
2022/04/13 00:20:40;;;;;;;3.72;2.60;;;11.80;99.90;;;;;;5075069;28;20016;-55
2022/04/13 00:23:07;;;;;;;2.90;2.22;;;11.90;99.90;;;;;;5075192;28;20030;-59
2022/04/13 00:25:33;;;;;;;3.40;2.40;;;11.70;99.90;;;;;;5093084;28;20031;-59
2022/04/13 00:27:59;;;;;;;3.78;2.30;;;11.60;99.90;;;;;;5093240;28;20016;-54
2022/04/13 00:30:25;;;;;;;4.40;2.40;;;11.60;99.90;;;;;;5074941;28;20028;-56
2022/04/13 00:32:51;;;;;;;6.47;2.63;;;11.60;99.90;;;;;;5093123;28;20027;-56
2022/04/13 00:35:17;;;;;;;4.95;2.95;;;11.60;99.90;;;;;;5092502;28;20020;-57
2022/04/13 00:37:42;;;;;;;4.35;2.78;;;11.60;99.90;;;;;;5074838;28;20052;-56
2022/04/13 00:40:09;;;;;;;5.85;3.10;;;11.60;99.90;;;;;;5093218;28;20067;-58
2022/04/13 00:42:35;;;;;;;7.88;3.22;;;11.50;99.90;;;;;;5074751;28;20039;-58
2022/04/13 00:45:00;;;;;;;5.57;2.58;;;11.40;99.90;;;;;;5092858;28;20024;-54
2022/04/13 00:47:26;;;;;;;3.33;2.40;;;11.40;99.90;;;;;;5093133;28;20028;-56
2022/04/13 00:49:54;;;;;;;4.00;2.63;;;11.30;99.90;;;;;;5075061;28;20020;-58
2022/04/13 00:52:21;;;;;;;7.63;3.05;;;11.30;99.90;;;;;;5092763;28;20028;-59
2022/04/13 00:54:49;;;;;;;4.15;2.47;;;11.20;99.90;;;;;;5092666;28;20016;-58
2022/04/13 00:57:17;;;;;;;7.00;2.70;;;11.10;99.90;;;;;;5092864;28;20028;-60
2022/04/13 00:59:48;;;;;;;4.97;2.30;;;11.10;99.90;;;;;;5074572;28;20020;-54
2022/04/13 01:02:16;;;;;;;3.13;2.33;;;11.10;99.90;;;;;;5074692;28;20024;-58
2022/04/13 01:04:45;;;;;;;5.45;2.72;;;11.10;99.90;;;;;;5092547;28;20265;-57
2022/04/13 01:07:11;;;;;;;3.13;2.65;;;11.10;99.90;;;;;;5092679;28;20024;-54
2022/04/13 01:09:55;;;;;;;6.03;2.67;;;11.10;99.90;;;;;;5092696;28;20032;-55
2022/04/13 01:12:20;;;;;;;5.10;2.50;;;11.00;99.90;;;;;;5092545;28;20032;-55
2022/04/13 01:14:46;;;;;;;4.85;2.40;;;11.00;99.90;;;;;;5092763;28;20024;-59
2022/04/13 01:17:11;;;;;;;4.03;2.60;;;10.90;99.90;;;;;;5093172;28;20020;-55
2022/04/13 01:19:39;;;;;;;3.95;2.10;;;10.90;99.90;;;;;;5074725;28;20126;-57
2022/04/13 01:22:23;;;;;;;8.50;2.50;;;10.90;99.90;;;;;;5092748;28;20031;-59
2022/04/13 01:24:49;;;;;;;3.47;2.40;;;10.90;99.90;;;;;;5074637;28;20451;-58
2022/04/13 01:27:15;;;;;;;3.45;2.20;;;10.90;99.90;;;;;;5074364;28;20043;-57
2022/04/13 01:29:42;;;;;;;5.28;2.60;;;10.90;99.90;;;;;;5092466;28;20020;-58
2022/04/13 01:32:09;;;;;;;4.13;2.28;;;10.90;99.90;;;;;;5092512;28;20020;-58
2022/04/13 01:34:35;;;;;;;4.47;2.55;;;10.90;99.90;;;;;;5092282;28;20077;-57
2022/04/13 01:37:01;;;;;;;3.17;2.22;;;10.70;99.90;;;;;;5092326;28;20020;-59
2022/04/13 01:39:27;;;;;;;5.53;2.15;;;10.60;99.90;;;;;;5074553;28;20024;-58
2022/04/13 01:41:53;;;;;;;10.27;2.63;;;10.70;99.90;;;;;;5075275;28;20056;-57
2022/04/13 01:44:19;;;;;;;3.67;2.25;;;10.60;99.90;;;;;;5092236;28;20020;-59
2022/04/13 01:46:44;;;;;;;6.78;2.40;;;10.70;99.90;;;;;;5075028;28;20024;-59
2022/04/13 01:49:10;;;;;;;2.53;2.10;;;10.70;99.90;;;;;;5095828;28;20031;-58
2022/04/13 01:51:36;;;;;;;3.65;2.05;;;10.70;99.90;;;;;;5077966;28;20039;-55
2022/04/13 01:54:01;;;;;;;4.53;2.50;;;10.80;99.90;;;;;;5095902;28;20093;-55
2022/04/13 01:56:27;;;;;;;7.18;2.97;;;10.70;99.90;;;;;;5096173;28;20027;-59
2022/04/13 01:58:53;;;;;;;4.75;2.30;;;10.70;99.90;;;;;;5078568;28;20016;-59
2022/04/13 02:01:19;;;;;;;5.60;2.13;;;10.80;99.90;;;;;;5096663;28;20028;-55
2022/04/13 02:03:45;;;;;;;3.90;2.75;;;10.90;99.90;;;;;;5095950;28;20026;-57
2022/04/13 02:06:39;;;;;;;4.20;2.70;;;10.90;99.90;;;;;;5095747;28;20057;-57
2022/04/13 02:09:05;;;;;;;3.80;2.55;;;10.80;99.90;;;;;;5096164;28;20046;-59
2022/04/13 02:11:30;;;;;;;4.32;2.50;;;10.80;99.90;;;;;;5077160;28;20032;-59
2022/04/13 02:13:56;;;;;;;4.07;2.17;;;10.90;99.90;;;;;;5095141;28;20022;-59
2022/04/13 02:16:22;;;;;;;6.03;2.42;;;10.90;99.90;;;;;;5095370;28;20047;-58
2022/04/13 02:18:47;;;;;;;7.45;2.40;;;10.90;99.90;;;;;;5077059;28;20024;-57
2022/04/13 02:21:13;;;;;;;10.77;2.80;;;10.90;99.90;;;;;;5095575;28;20018;-59
2022/04/13 02:23:39;;;;;;;10.50;3.13;;;11.00;99.90;;;;;;5077884;28;20024;-58
2022/04/13 02:26:04;;;;;;;4.55;2.60;;;10.90;99.90;;;;;;5095221;28;20077;-58
2022/04/13 02:28:30;;;;;;;3.72;2.58;;;10.90;99.90;;;;;;5095416;28;20025;-59
2022/04/13 02:30:56;;;;;;;3.45;2.22;;;10.90;99.90;;;;;;5095226;28;20024;-58
2022/04/13 02:33:21;;;;;;;3.70;2.55;;;10.90;99.90;;;;;;5076844;28;20115;-58
2022/04/13 02:35:47;;;;;;;5.55;2.85;;;10.80;99.90;;;;;;5076893;28;20016;-58
2022/04/13 02:38:13;;;;;;;3.83;2.28;;;10.80;99.90;;;;;;5077664;28;20028;-59
2022/04/13 02:40:38;;;;;;;3.95;2.40;;;10.70;99.90;;;;;;5095085;28;20016;-57
2022/04/13 02:43:04;;;;;;;6.72;3.13;;;10.70;99.90;;;;;;5077233;28;20032;-59
2022/04/13 02:45:29;;;;;;;4.15;2.63;;;10.70;99.90;;;;;;5094858;28;20101;-59
2022/04/13 02:47:55;;;;;;;3.53;2.60;;;10.70;99.90;;;;;;5076649;28;20034;-55
2022/04/13 02:50:21;;;;;;;3.10;2.25;;;10.70;99.90;;;;;;5076683;28;20091;-58
2022/04/13 02:52:46;;;;;;;5.07;3.05;;;10.80;99.90;;;;;;5076761;28;20074;-56
2022/04/13 02:55:12;;;;;;;5.03;2.72;;;10.80;99.90;;;;;;5077059;28;20111;-57
2022/04/13 02:57:38;;;;;;;9.02;3.33;;;10.90;99.90;;;;;;5094505;28;20020;-58
2022/04/13 03:00:05;;;;;;;5.82;2.72;;;11.00;99.90;;;;;;5094179;28;20532;-56
2022/04/13 03:02:30;;;;;;;5.40;3.28;;;10.90;99.90;;;;;;5076404;28;20074;-59
2022/04/13 03:04:56;;;;;;;6.25;3.53;;;10.90;99.90;;;;;;5076177;28;20074;-59
2022/04/13 03:07:24;;;;;;;11.27;5.32;;;10.90;99.90;;;;;;5094654;28;20047;-56
2022/04/13 03:09:50;;;;;;;6.50;4.18;;;10.90;99.90;;;;;;5077113;28;20032;-58
2022/04/13 03:12:15;;;;;;;13.68;5.38;;;11.00;99.90;;;;;;5076249;28;20092;-54
2022/04/13 03:14:41;;;;;;;4.88;3.53;;;11.00;99.90;;;;;;5094157;28;20012;-56
2022/04/13 03:17:07;;;;;;;5.47;3.55;;;11.00;99.90;;;;;;5076340;28;20024;-56
2022/04/13 03:19:32;;;;;;;5.15;3.22;;;10.80;99.90;;;;;;5076780;28;20027;-58
2022/04/13 03:21:58;;;;;;;4.25;3.10;;;10.80;99.90;;;;;;5076288;28;20020;-54
2022/04/13 03:24:24;;;;;;;7.55;3.40;;;10.80;99.90;;;;;;5076079;28;20055;-55
2022/04/13 03:26:51;;;;;;;6.63;3.28;;;10.90;99.90;;;;;;5093965;28;20035;-58
2022/04/13 03:29:17;;;;;;;6.50;4.03;;;10.90;99.90;;;;;;5093816;28;20028;-55
2022/04/13 03:31:42;;;;;;;11.20;4.13;;;11.00;99.90;;;;;;5093874;28;20101;-58
2022/04/13 03:34:08;;;;;;;4.47;3.13;;;11.00;99.90;;;;;;5093846;28;20048;-58
2022/04/13 03:36:39;;;;;;;9.38;4.65;;;11.00;99.90;;;;;;5075658;28;20016;-57
2022/04/13 03:39:05;;;;;;;5.38;2.97;;;11.00;99.90;;;;;;5094062;28;20031;-57
2022/04/13 03:41:31;;;;;;;6.95;3.00;;;11.00;99.90;;;;;;5075499;28;20022;-59
2022/04/13 03:43:56;;;;;;;7.80;3.17;;;11.10;99.90;;;;;;5075516;28;20118;-57
2022/04/13 03:46:22;;;;;;;10.93;4.60;;;11.10;99.90;;;;;;5075437;28;20024;-57
2022/04/13 03:48:48;;;;;;;5.63;3.45;;;11.00;99.90;;;;;;5075795;28;20028;-57
2022/04/13 03:51:13;;;;;;;7.38;3.42;;;10.90;99.90;;;;;;5093856;28;20020;-56
2022/04/13 03:53:39;;;;;;;7.55;3.97;;;10.80;99.90;;;;;;5075164;28;20023;-59
2022/04/13 03:56:04;;;;;;;5.75;3.55;;;10.70;99.90;;;;;;5075317;28;20030;-57
2022/04/13 03:58:31;;;;;;;7.75;3.80;;;10.70;99.90;;;;;;5093378;28;20089;-57
2022/04/13 04:00:57;;;;;;;7.43;3.33;;;10.70;99.90;;;;;;5075237;28;20106;-58
2022/04/13 04:03:22;;;;;;;5.85;3.30;;;10.70;99.90;;;;;;5093291;28;20063;-57
2022/04/13 04:05:48;;;;;;;7.60;3.97;;;10.70;99.90;;;;;;5093885;28;20538;-56
2022/04/13 04:08:13;;;;;;;7.55;3.45;;;10.70;99.90;;;;;;5095131;28;20020;-57
2022/04/13 04:10:39;;;;;;;10.15;3.15;;;10.60;99.90;;;;;;5095007;28;20065;-57
2022/04/13 04:13:05;;;;;;;6.55;3.30;;;10.60;99.90;;;;;;5108435;28;20483;-56
2022/04/13 04:15:31;;;;;;;4.05;3.30;;;10.50;99.90;;;;;;5074942;28;20020;-59
2022/04/13 04:17:56;;;;;;;5.18;3.15;;;10.50;99.90;;;;;;5092884;28;20355;-59
2022/04/13 04:20:22;;;;;;;6.93;3.97;;;10.50;99.90;;;;;;5092878;28;20072;-59
2022/04/13 04:22:47;;;;;;;7.72;3.85;;;10.40;99.90;;;;;;5092921;28;20024;-59
2022/04/13 04:25:13;;;;;;;5.70;3.97;;;10.30;99.90;;;;;;5092941;28;20020;-59
2022/04/13 04:27:39;;;;;;;7.28;4.18;;;10.30;99.90;;;;;;5074936;28;20027;-59
2022/04/13 04:30:05;;;;;;;4.45;3.13;;;10.20;99.90;;;;;;5075124;28;20428;-59
2022/04/13 04:32:32;;;;;;;7.75;3.55;;;10.30;99.90;;;;;;5075206;28;20024;-59
2022/04/13 04:34:57;;;;;;;7.97;3.30;;;10.30;99.90;;;;;;5075567;28;20028;-59
2022/04/13 04:37:23;;;;;;;6.57;3.78;;;10.20;99.90;;;;;;5075326;28;20027;-59
2022/04/13 04:39:49;;;;;;;7.25;3.40;;;10.10;99.90;;;;;;5075358;28;20020;-58
2022/04/13 04:42:14;;;;;;;7.07;3.70;;;10.00;99.90;;;;;;5093400;28;20059;-57
2022/04/13 04:44:40;;;;;;;6.10;4.05;;;10.00;99.90;;;;;;5075284;28;20049;-59
2022/04/13 04:47:06;;;;;;;6.75;3.60;;;9.90;99.90;;;;;;5093376;28;20031;-56
2022/04/13 04:49:31;;;;;;;7.25;4.47;;;9.80;99.90;;;;;;5093543;28;20049;-55
2022/04/13 04:51:57;;;;;;;9.55;4.13;;;9.70;99.90;;;;;;5075154;28;20028;-59
2022/04/13 04:54:22;;;;;;;9.32;3.90;;;9.70;99.90;;;;;;5075128;28;20020;-54
2022/04/13 04:56:48;;;;;;;4.32;3.15;;;9.70;99.90;;;;;;5075277;28;20024;-54
2022/04/13 04:59:15;;;;;;;4.78;3.38;;;9.80;99.90;;;;;;5075452;28;20020;-56
2022/04/13 05:01:41;;;;;;;6.50;3.40;;;9.80;99.90;;;;;;5093160;28;20028;-53
2022/04/13 05:04:07;;;;;;;4.72;3.38;;;9.90;99.90;;;;;;5093318;28;20078;-56
2022/04/13 05:06:33;;;;;;;10.57;3.70;;;9.90;99.90;;;;;;5075300;28;20063;-56
2022/04/13 05:08:58;;;;;;;6.65;3.63;;;10.00;99.90;;;;;;5093426;28;20028;-53
2022/04/13 05:11:24;;;;;;;5.68;3.28;;;10.00;99.90;;;;;;5074939;28;20046;-55
2022/04/13 05:13:50;;;;;;;5.78;3.65;;;10.10;99.90;;;;;;5074845;28;20132;-56
2022/04/13 05:16:17;;;;;;;7.45;4.18;;;10.10;99.90;;;;;;5075197;28;20024;-53
2022/04/13 05:18:45;;;;;;;7.85;4.35;;;10.20;99.90;;;;;;5074886;28;20107;-55
2022/04/13 05:21:11;;;;;;;9.38;5.10;;;10.20;99.90;;;;;;5093300;28;20383;-54
2022/04/13 05:23:37;;;;;;;8.85;4.35;;;10.30;99.90;;;;;;5099432;28;20028;-52
2022/04/13 05:26:03;;;;;;;11.20;5.05;;;10.30;99.90;;;;;;5078760;28;20111;-57
2022/04/13 05:28:29;;;;;;;10.98;5.15;;;10.30;99.90;;;;;;5096743;28;20020;-55
2022/04/13 05:30:55;;;;;;;11.45;5.07;;;10.40;99.90;;;;;;5078579;28;20040;-57
2022/04/13 05:33:21;;;;;;;6.85;4.50;;;10.60;99.90;;;;;;5096124;28;20063;-56
2022/04/13 05:35:47;;;;;;;10.05;5.38;;;10.60;99.90;;;;;;5078833;28;20066;-57
2022/04/13 05:38:12;;;;;;;8.13;4.70;;;10.70;99.90;;;;;;5096738;28;20055;-54
2022/04/13 05:40:38;;;;;;;9.60;4.50;;;10.80;99.90;;;;;;5078260;28;20027;-55
2022/04/13 05:43:04;;;;;;;9.63;4.85;;;10.70;99.90;;;;;;5096485;28;20031;-51
2022/04/13 05:45:30;;;;;;;6.65;4.57;;;10.90;99.90;;;;;;5078136;28;20036;-55
2022/04/13 05:47:57;;;;;;;15.15;4.72;;;11.10;99.90;;;;;;5078555;28;20028;-55
2022/04/13 05:50:23;;;;;;;7.20;3.75;;;11.40;99.90;;;;;;5096303;28;20020;-53
2022/04/13 05:52:49;;;;;;;6.88;3.97;;;11.60;99.90;;;;;;5096519;28;20028;-54
2022/04/13 05:55:14;;;;;;;21.25;10.05;;;11.90;99.90;;;;;;5096204;28;20020;-53
2022/04/13 05:57:40;;;;;;;9.35;5.10;;;12.20;99.90;;;;;;5078220;28;20107;-55
2022/04/13 06:00:10;;;;;;;6.53;4.07;;;12.40;99.90;;;;;;5078071;28;20024;-51
2022/04/13 06:02:36;;;;;;;9.60;4.78;;;12.80;99.90;;;;;;5096357;28;20027;-54
2022/04/13 06:05:03;;;;;;;8.25;5.25;;;13.00;99.90;;;;;;5078278;28;20024;-54
2022/04/13 06:07:29;;;;;;;7.32;5.10;;;13.10;99.90;;;;;;5096549;28;20020;-54
2022/04/13 06:09:54;;;;;;;9.80;5.70;;;13.40;99.90;;;;;;5096247;28;20020;-57
2022/04/13 06:12:24;;;;;;;7.07;4.22;;;13.80;99.90;;;;;;5095035;28;20077;-53
2022/04/13 06:14:50;;;;;;;6.80;4.25;;;14.10;99.90;;;;;;5096027;28;20023;-57
2022/04/13 06:17:16;;;;;;;8.63;4.55;;;14.50;99.90;;;;;;5081331;28;20031;-57
2022/04/13 06:19:42;;;;;;;6.22;4.05;;;14.80;99.90;;;;;;5116190;28;20389;-54
2022/04/13 06:22:08;;;;;;;7.97;4.30;;;15.10;99.90;;;;;;5097923;28;20032;-56
2022/04/13 06:24:33;;;;;;;13.43;4.10;;;15.40;99.90;;;;;;5097828;28;20252;-54
2022/04/13 06:26:59;;;;;;;8.48;3.70;;;15.70;99.90;;;;;;5097858;28;20024;-57
2022/04/13 06:29:25;;;;;;;7.63;4.18;;;15.70;99.90;;;;;;5116032;28;20030;-53
2022/04/13 06:31:50;;;;;;;8.40;4.18;;;15.70;99.90;;;;;;5115959;28;20047;-58
2022/04/13 06:34:16;;;;;;;6.65;3.80;;;15.60;99.90;;;;;;5115042;28;20099;-56
2022/04/13 06:36:42;;;;;;;6.85;3.95;;;16.10;99.90;;;;;;5116222;28;20478;-58
2022/04/13 06:39:08;;;;;;;9.98;4.10;;;16.60;99.90;;;;;;5097866;28;20062;-55
2022/04/13 06:41:33;;;;;;;7.97;4.60;;;16.60;99.90;;;;;;5115937;28;20044;-51
2022/04/13 06:43:59;;;;;;;10.43;4.70;;;16.90;99.90;;;;;;5115741;28;20541;-52
2022/04/13 06:46:25;;;;;;;6.82;4.22;;;17.10;99.90;;;;;;5115562;28;20508;-55
2022/04/13 06:48:50;;;;;;;11.30;4.65;;;17.40;99.90;;;;;;5110390;28;20028;-56
2022/04/13 06:51:16;;;;;;;11.95;5.45;;;17.70;99.90;;;;;;5077380;28;20474;-55
2022/04/13 06:53:42;;;;;;;8.55;5.25;;;18.20;99.90;;;;;;5095369;28;20056;-53
2022/04/13 06:56:08;;;;;;;12.25;5.38;;;18.50;99.90;;;;;;5111422;28;20024;-58
2022/04/13 06:58:33;;;;;;;8.00;5.28;;;19.00;99.90;;;;;;5098114;28;20016;-58
2022/04/13 07:00:59;;;;;;;8.00;4.72;;;19.20;99.90;;;;;;5097441;28;20024;-58
2022/04/13 07:03:25;;;;;;;10.27;4.82;;;19.80;99.90;;;;;;5097578;28;20020;-56
2022/04/13 07:05:51;;;;;;;6.68;4.30;;;20.20;99.90;;;;;;5115332;28;20028;-55
2022/04/13 07:08:16;;;;;;;8.00;4.22;;;20.80;99.90;;;;;;5097034;28;20030;-57
2022/04/13 07:10:42;;;;;;;10.20;5.22;;;21.40;99.90;;;;;;5097078;28;20026;-58
2022/04/13 07:13:09;;;;;;;7.75;5.30;;;21.70;99.90;;;;;;5096896;28;20081;-56
2022/04/13 07:15:34;;;;;;;14.65;6.57;;;21.90;99.90;;;;;;5094957;28;20016;-55
2022/04/13 07:18:00;;;;;;;13.50;6.80;;;22.10;99.90;;;;;;5094997;28;20078;-57
2022/04/13 07:20:26;;;;;;;8.35;5.57;;;22.70;99.90;;;;;;5088445;28;20028;-58
2022/04/13 07:22:53;;;;;;;5.90;4.63;;;23.20;98.00;;;;;;5094748;28;20031;-56
2022/04/13 07:25:19;;;;;;;12.07;5.72;;;23.60;96.10;;;;;;5094581;28;20024;-58
2022/04/13 07:27:46;;;;;;;8.95;4.80;;;23.90;96.20;;;;;;5096491;28;20027;-58
2022/04/13 07:30:13;;;;;;;10.38;4.85;;;24.40;94.10;;;;;;5078215;28;20113;-56
2022/04/13 07:32:39;;;;;;;9.55;4.28;;;24.70;92.70;;;;;;5092841;28;20087;-58
2022/04/13 07:35:06;;;;;;;5.97;4.35;;;24.50;94.10;;;;;;5096397;28;20015;-58
2022/04/13 07:37:32;;;;;;;25.58;11.65;;;24.70;91.10;;;;;;5096538;28;20023;-58
2022/04/13 07:39:58;;;;;;;7.05;4.38;;;25.10;91.30;;;;;;5096425;28;20023;-58
2022/04/13 07:42:26;;;;;;;5.47;3.85;;;25.70;89.10;;;;;;5092463;28;20019;-58
2022/04/13 07:44:51;;;;;;;6.90;4.63;;;26.60;87.60;;;;;;5094070;28;20091;-58
2022/04/13 07:47:19;;;;;;;6.95;3.88;;;26.90;83.00;;;;;;5094179;28;20034;-58
2022/04/13 07:49:46;;;;;;;6.53;4.28;;;27.70;80.70;;;;;;5093779;28;20020;-58
2022/04/13 07:52:13;;;;;;;8.02;4.10;;;28.10;78.30;;;;;;5074302;28;20024;-59
2022/04/13 07:54:39;;;;;;;7.45;3.95;;;27.90;76.40;;;;;;5074824;28;20024;-58
2022/04/13 07:57:04;;;;;;;7.03;4.32;;;28.20;76.10;;;;;;5075466;28;20020;-58
2022/04/13 07:59:30;;;;;;;6.38;4.40;;;29.10;73.10;;;;;;5075398;28;20050;-58
2022/04/13 08:01:55;;;;;;;7.35;3.95;;;28.40;71.20;;;;;;5075387;28;20021;-58
2022/04/13 08:04:21;;;;;;;7.32;4.35;;;28.40;72.10;;;;;;5093297;28;20024;-57
2022/04/13 08:06:47;;;;;;;5.93;4.22;;;29.10;71.90;;;;;;5075808;28;20028;-57
2022/04/13 08:09:13;;;;;;;6.53;3.95;;;30.00;71.20;;;;;;5076067;28;20043;-57
2022/04/13 08:11:39;;;;;;;7.18;3.95;;;29.30;68.30;;;;;;5075932;28;20478;-55
2022/04/13 08:14:05;;;;;;;10.65;4.47;;;30.10;67.60;;;;;;5095808;28;20024;-53
2022/04/13 08:16:32;;;;;;;8.80;4.80;;;30.40;66.60;;;;;;5111827;28;20043;-54
2022/04/13 08:18:58;;;;;;;11.73;4.70;;;30.70;64.90;;;;;;5097939;28;20031;-54
2022/04/13 08:21:24;;;;;;;8.75;4.10;;;31.00;64.40;;;;;;5075656;28;20397;-49
2022/04/13 08:23:50;;;;;;;7.43;3.45;;;30.50;64.90;;;;;;5095520;28;20031;-56
2022/04/13 08:26:16;;;;;;;5.40;3.70;;;30.50;66.60;;;;;;5107067;28;20058;-53
2022/04/13 08:28:41;;;;;;;5.95;3.95;;;31.50;62.00;;;;;;5100428;28;20483;-51
2022/04/13 08:31:09;;;;;;;7.50;3.47;;;31.90;60.60;;;;;;5095713;28;20027;-54
2022/04/13 08:33:36;;;;;;;3.30;3.00;;;32.80;61.60;;;;;;5095445;28;20405;-54
2022/04/13 08:36:04;;;;;;;3.72;2.60;;;32.50;57.90;;;;;;5095600;28;20023;-54
2022/04/13 08:38:36;;;;;;;5.28;2.28;;;31.70;55.10;;;;;;5093769;28;20024;-56
2022/04/13 08:41:47;;;;;;;4.45;2.17;;;30.80;54.60;;;;;;5091040;28;20016;-52
2022/04/13 08:44:32;;;;;;;6.72;2.25;;;30.00;55.30;;;;;;5074728;28;20028;-52
2022/04/13 08:47:05;;;;;;;2.95;2.20;;;29.80;55.10;;;;;;5085712;28;20039;-56
2022/04/13 08:49:39;;;;;;;4.28;2.70;;;29.10;55.30;;;;;;5108730;28;20023;-57
2022/04/13 08:52:07;;;;;;;5.40;2.60;;;29.00;55.50;;;;;;5114007;28;20035;-55
2022/04/13 08:54:59;;;;;;;5.05;2.55;;;29.20;55.30;;;;;;5095255;28;20110;-54
2022/04/13 08:57:26;;;;;;;5.93;3.25;;;28.80;55.30;;;;;;5098042;28;20039;-53
2022/04/13 09:00:13;;;;;;;3.53;2.80;;;28.00;56.10;;;;;;5117590;28;20024;-56
2022/04/13 09:02:47;;;;;;;5.28;3.00;;;27.60;56.80;;;;;;5096808;28;20053;-56
2022/04/13 09:05:32;;;;;;;7.35;3.10;;;27.70;57.30;;;;;;5114432;28;20115;-58
2022/04/13 09:08:14;;;;;;;6.45;3.13;;;28.00;56.50;;;;;;5117379;28;20032;-57
2022/04/13 09:10:41;;;;;;;4.35;3.03;;;28.70;57.10;;;;;;5099203;28;20050;-60
2022/04/13 09:13:10;;;;;;;8.40;3.72;;;28.10;55.80;;;;;;5117145;28;20085;-59
2022/04/13 09:15:38;;;;;;;4.88;3.17;;;27.90;56.20;;;;;;5098983;28;20477;-59
2022/04/13 09:18:06;;;;;;;8.35;3.85;;;28.10;56.60;;;;;;5106708;28;20471;-58
2022/04/13 09:20:31;;;;;;;6.30;3.30;;;27.90;56.70;;;;;;5096959;28;20024;-57
2022/04/13 09:22:59;;;;;;;6.57;3.88;;;28.50;57.30;;;;;;5079053;28;20046;-61
2022/04/13 09:25:27;;;;;;;5.70;3.10;;;28.50;56.10;;;;;;5078831;28;20024;-59
2022/04/13 09:27:53;;;;;;;5.00;3.38;;;28.80;56.90;;;;;;5078871;28;20021;-59
2022/04/13 09:30:18;;;;;;;5.72;3.60;;;28.50;56.50;;;;;;5078542;28;20136;-60
2022/04/13 09:32:45;;;;;;;4.18;3.53;;;28.10;57.00;;;;;;5093929;28;21026;-55
2022/04/13 09:35:11;;;;;;;7.55;4.22;;;27.70;57.50;;;;;;5078344;28;20024;-60
2022/04/13 09:37:37;;;;;;;7.20;3.75;;;26.90;58.30;;;;;;5096549;28;20030;-59
2022/04/13 09:40:02;;;;;;;6.38;4.13;;;26.50;59.60;;;;;;5096815;28;20107;-61
2022/04/13 09:42:28;;;;;;;10.52;4.05;;;26.00;59.70;;;;;;5096781;28;20039;-60
2022/04/13 09:44:58;;;;;;;6.82;3.53;;;25.40;60.60;;;;;;5096441;28;20020;-60
2022/04/13 09:47:30;;;;;;;10.38;3.65;;;25.00;62.20;;;;;;5078175;28;20420;-59
2022/04/13 09:49:56;;;;;;;8.32;4.15;;;24.80;62.90;;;;;;5078234;28;20032;-57
2022/04/13 09:52:37;;;;;;;7.07;4.20;;;24.30;62.80;;;;;;5078018;28;20020;-56
2022/04/13 09:55:07;;;;;;;4.82;3.47;;;24.10;64.50;;;;;;5096167;28;20103;-59
2022/04/13 09:57:33;;;;;;;9.40;4.18;;;24.60;65.80;;;;;;5078270;28;20024;-59
2022/04/13 10:00:01;;;;;;;6.05;3.75;;;25.50;63.40;;;;;;5078085;28;20027;-59
2022/04/13 10:02:43;;;;;;;8.80;3.35;;;25.60;61.70;;;;;;5077953;28;20032;-61
2022/04/13 10:05:20;;;;;;;8.63;4.13;;;26.20;61.90;;;;;;5086442;28;20027;-59
2022/04/13 10:08:05;;;;;;;6.95;4.18;;;27.20;60.40;;;;;;5093080;28;20024;-60
2022/04/13 10:10:31;;;;;;;7.63;4.40;;;27.60;59.80;;;;;;5077806;28;20032;-57
2022/04/13 10:12:57;;;;;;;6.05;3.60;;;27.70;61.10;;;;;;5077848;28;20024;-57
2022/04/13 10:15:22;;;;;;;7.38;3.80;;;28.20;60.20;;;;;;5077682;28;20036;-61
2022/04/13 10:17:49;;;;;;;10.20;4.40;;;28.30;59.90;;;;;;5096140;28;20020;-60
2022/04/13 10:20:14;;;;;;;12.85;5.15;;;27.60;60.60;;;;;;5078055;28;20039;-62
2022/04/13 10:23:00;;;;;;;6.82;4.10;;;27.40;60.10;;;;;;5080735;28;20028;-56
2022/04/13 10:25:27;;;;;;;9.90;4.15;;;27.30;61.90;;;;;;5097597;28;20057;-60
2022/04/13 10:28:00;;;;;;;8.63;4.75;;;27.20;62.50;;;;;;5097892;28;20156;-57
2022/04/13 10:30:31;;;;;;;9.80;4.35;;;26.80;62.50;;;;;;5098095;28;20024;-58
2022/04/13 10:33:07;;;;;;;8.32;4.57;;;27.20;62.90;;;;;;5115768;28;20031;-57
2022/04/13 10:35:37;;;;;;;9.70;4.32;;;27.30;64.10;;;;;;5097587;28;20076;-59
2022/04/13 10:38:03;;;;;;;13.10;4.90;;;26.60;62.50;;;;;;5097887;28;20026;-58
2022/04/13 10:40:39;;;;;;;7.80;4.45;;;26.40;63.30;;;;;;5097498;28;20582;-59
2022/04/13 10:43:06;;;;;;;9.02;4.72;;;25.80;64.90;;;;;;5097364;28;20024;-57
2022/04/13 10:46:15;;;;;;;11.48;4.53;;;26.10;64.60;;;;;;5097807;28;20077;-55
2022/04/13 10:48:45;;;;;;;6.75;4.40;;;26.00;64.60;;;;;;5097699;28;20059;-59
2022/04/13 10:51:13;;;;;;;7.85;5.00;;;25.60;65.00;;;;;;5115934;28;20020;-58
2022/04/13 10:53:53;;;;;;;7.60;4.18;;;25.40;66.90;;;;;;5115692;28;20023;-58
2022/04/13 10:56:21;;;;;;;8.38;4.38;;;25.60;66.40;;;;;;5115611;28;20059;-59
2022/04/13 10:59:05;;;;;;;12.45;4.60;;;26.00;65.40;;;;;;5115472;28;20477;-58
2022/04/13 11:01:44;;;;;;;11.55;5.10;;;25.70;66.70;;;;;;5115514;28;20051;-58
2022/04/13 11:04:11;;;;;;;9.13;5.18;;;25.20;65.60;;;;;;5096971;28;20024;-56
2022/04/13 11:06:39;;;;;;;11.35;5.13;;;24.70;66.30;;;;;;5097016;28;20028;-55
2022/04/13 11:09:13;;;;;;;10.32;4.85;;;24.40;67.10;;;;;;5097341;28;20083;-57
2022/04/13 11:11:40;;;;;;;13.30;5.78;;;24.50;67.90;;;;;;5115196;28;20035;-59
2022/04/13 11:14:19;;;;;;;11.70;4.88;;;24.40;68.70;;;;;;5115015;28;20069;-59
2022/04/13 11:16:45;;;;;;;10.55;4.93;;;24.10;68.20;;;;;;5096835;28;20023;-56
2022/04/13 11:19:10;;;;;;;12.02;4.88;;;24.00;68.30;;;;;;5114688;28;20071;-59
2022/04/13 11:21:51;;;;;;;10.57;5.13;;;23.90;70.40;;;;;;5097190;28;20027;-57
2022/04/13 11:24:36;;;;;;;12.85;4.88;;;23.60;69.30;;;;;;5096661;28;20187;-59
2022/04/13 11:27:04;;;;;;;14.10;5.32;;;23.60;68.60;;;;;;5114908;28;20054;-58
2022/04/13 11:29:41;;;;;;;9.77;4.90;;;23.40;68.80;;;;;;5096860;28;20034;-59
2022/04/13 11:32:10;;;;;;;15.15;5.75;;;23.20;70.40;;;;;;5096911;28;20055;-58
2022/04/13 11:34:37;;;;;;;14.68;6.25;;;23.20;70.60;;;;;;5096424;28;20111;-54
2022/04/13 11:37:05;;;;;;;12.73;5.75;;;23.00;73.10;;;;;;5114630;28;20015;-57
2022/04/13 11:39:53;;;;;;;15.13;6.07;;;23.10;71.70;;;;;;5114497;28;20024;-58
2022/04/13 11:45:51;;;;;;;;;;;22.90;72.10;;;;;;5111248;28;20108;-59
2022/04/13 11:48:34;;;;;;;11.80;5.72;;;22.70;72.80;;;;;;5094364;28;19908;-58
2022/04/13 11:51:29;;;;;;;18.90;7.22;;;22.80;72.20;;;;;;5076201;28;20020;-59
2022/04/13 11:54:11;;;;;;;14.52;6.70;;;22.80;72.70;;;;;;5094142;28;20069;-58
2022/04/13 11:56:52;;;;;;;14.82;6.00;;;22.80;73.50;;;;;;5094108;28;20032;-59
2022/04/13 11:59:49;;;;;;;14.17;6.50;;;22.70;74.60;;;;;;5076101;28;20020;-60
2022/04/13 12:02:16;;;;;;;20.85;6.65;;;22.60;74.60;;;;;;5075895;28;20024;-59
2022/04/13 12:04:46;;;;;;;13.25;5.50;;;22.70;74.40;;;;;;5093743;28;20027;-57
2022/04/13 12:10:38;;;;;;;19.95;6.90;;;23.00;73.70;;;;;;5094036;28;20019;-58
2022/04/13 12:13:04;;;;;;;22.48;7.10;;;22.90;73.90;;;;;;5075592;28;20110;-58
2022/04/13 12:15:52;;;;;;;18.95;6.68;;;22.70;73.70;;;;;;5075856;28;20085;-58
2022/04/13 12:18:19;;;;;;;17.95;6.22;;;22.80;76.40;;;;;;5094104;28;20031;-57
2022/04/13 12:24:09;;;;;;;14.85;6.32;;;22.90;74.90;;;;;;5093468;28;20027;-58
2022/04/13 12:26:44;;;;;;;13.65;5.28;;;23.00;74.60;;;;;;5075405;28;20026;-57
2022/04/13 12:29:13;;;;;;;14.10;5.50;;;23.10;75.50;;;;;;5075340;28;20031;-53
2022/04/13 12:31:47;;;;;;;17.10;5.32;;;23.00;72.70;;;;;;5093070;28;20024;-59
2022/04/13 12:34:21;;;;;;;18.83;6.10;;;23.30;75.60;;;;;;5075443;28;20024;-56
2022/04/13 12:37:06;;;;;;;10.63;5.07;;;23.40;73.30;;;;;;5093413;28;20028;-56
2022/04/13 12:39:33;;;;;;;17.48;6.05;;;23.40;72.90;;;;;;5075545;28;20023;-54
2022/04/13 12:45:28;;;;;;;14.75;5.20;;;23.30;73.40;;;;;;5093439;28;20031;-59
2022/04/13 12:47:54;;;;;;;11.25;4.53;;;23.50;73.30;;;;;;5093098;28;20051;-59
2022/04/13 12:50:20;;;;;;;9.30;4.28;;;23.50;72.90;;;;;;5075279;28;20032;-56
2022/04/13 12:52:57;;;;;;;12.30;4.07;;;23.70;71.20;;;;;;5074956;28;20554;-58
2022/04/13 12:55:22;;;;;;;8.05;3.75;;;23.80;71.60;;;;;;5075393;28;20024;-56
2022/04/13 12:57:48;;;;;;;8.13;3.78;;;23.90;71.60;;;;;;5093164;28;20023;-56
2022/04/13 13:00:50;;;;;;;12.05;3.95;;;24.00;70.40;;;;;;5093384;28;20028;-57
2022/04/13 13:03:16;;;;;;;;;;;24.10;69.20;;;;;;5075308;28;20028;-56
2022/04/13 13:05:42;;;;;;;11.88;4.85;;;24.20;70.00;;;;;;5093050;28;19904;-60